首页
METAR-TAF:

METAR-TAF

机场 :

克拉斯诺达尔, 俄罗斯

纬度: 45-02N, 经度: 039-09E, 海拔: 33米

当前天气观测

该预报发布于33分钟前的14:00 UTC
风速6节,风向西北
温度 6°C
湿度 75%
气压 1023 hPa
能見度: 9000
散云层高于3400英尺, 积雨云.
散云层高于3400英尺

METAR: URKK 261400Z 32003MPS 9000 SCT034CB SCT034 06/02 Q1023 R23L/190065 NOSIG RMK QFE764

时间: 18:33 (14:33 UTC)

预报

该预报发布于3小时和38分钟前的10:55 UTC
预报有效从26日的 12点(UTC)到 27日的 12点(UTC)
风速6节,风向西,有时为16节阵风
能見度: 5000
多云层高于1500英尺, 积雨云.
小阵雨
从 26日的 1800点(UTC)
风速6节,风向北转西北,有时为16节阵风
能見度: 5000
多云层高于2000英尺, 积雨云.
轻雾
短暂存在
从 26日的 18点(UTC)到 27日的 09点(UTC)
能見度: 3100
散云层高于1100英尺
散云层高于2000英尺, 积雨云.
小阵雨, 轻雾

TAF: URKK 261055Z 2612/2712 27003G08MPS 5000 -SHRA BKN015CB FM261800 33003G08MPS 5000 BR BKN020CB TEMPO 2618/2709 3100 -SHRA BR SCT011 SCT020CB

超过4000个机场的气象观测和天气预报(METAR&TAF报告)。

可查询的气象台以黄色和红色小点在地图上表示。

将鼠标移到小点上方,可查看气象台名称。

然后点击查看天气观测和预报。

如需切换地图:点击带黑十字的绿色按钮放大地图;点击带横线的绿色按钮缩小地图;或者点击绿色箭头查看邻近地区的地图。


METAR-TAF: